Time;durP1;ratioP1;P1;durP2;ratioP2;P2;SDS_P1;SDS_P2;PMS_P1;PMS_P2;Temp;Humidity;BMP_temperature;BMP_pressure;BME280_temperature;BME280_humidity;BME280_pressure;Samples;Min_cycle;Max_cycle;Signal;HPM_P1;HPM_P2
2022/04/04 08:52:25;;;;;;;8.23;3.47;;;;;;;5.64;55.61;98689.55;1801541;79;22752;-42
2022/04/04 08:54:52;;;;;;;6.37;4.40;;;;;;;5.63;55.92;98694.40;1755662;80;21055;-40
2022/04/04 08:57:18;;;;;;;5.33;4.47;;;;;;;5.58;55.42;98698.06;1761874;81;21559;-40
2022/04/04 08:59:45;;;;;;;16.45;8.55;;;;;;;5.66;54.53;98692.50;1761633;80;20987;-43
2022/04/04 09:02:13;;;;;;;17.23;6.13;;;;;;;5.78;54.80;98674.13;1762166;81;21594;-42
2022/04/04 09:04:40;;;;;;;8.18;6.08;;;;;;;5.99;53.97;98680.17;1761464;81;21027;-41
2022/04/04 09:07:12;;;;;;;5.15;4.47;;;;;;;6.25;53.78;98662.43;1762134;80;21039;-40
2022/04/04 09:09:49;;;;;;;4.70;3.00;;;;;;;6.41;53.08;98665.16;1761527;80;22141;-45
2022/04/04 09:12:20;;;;;;;8.65;3.08;;;;;;;6.31;51.37;98663.43;1761574;81;21039;-41
2022/04/04 09:14:56;;;;;;;10.35;3.42;;;;;;;6.32;51.85;98660.75;1760037;80;21492;-41
2022/04/04 09:17:27;;;;;;;6.20;3.83;;;;;;;6.10;50.64;98656.17;1760339;81;21008;-42
2022/04/04 09:19:54;;;;;;;10.20;4.33;;;;;;;6.21;50.94;98649.98;1759901;80;21567;-48
2022/04/04 09:22:21;;;;;;;8.13;3.85;;;;;;;6.59;51.50;98639.44;1771449;79;21495;-40
2022/04/04 09:24:59;;;;;;;9.88;3.47;;;;;;;7.13;52.79;98645.89;1788752;80;21012;-42
2022/04/04 09:27:32;;;;;;;7.00;3.72;;;;;;;7.45;51.12;98647.27;1794036;79;21498;-45
2022/04/04 09:30:03;;;;;;;4.65;3.37;;;;;;;7.38;50.22;98632.36;1796049;79;21017;-43
2022/04/04 09:32:40;;;;;;;13.65;4.33;;;;;;;7.35;49.60;98626.44;1795685;80;21025;-44
2022/04/04 09:35:13;;;;;;;9.55;3.95;;;;;;;7.41;50.55;98628.28;1796273;79;20997;-41
2022/04/04 09:37:42;;;;;;;11.60;5.20;;;;;;;7.36;49.59;98628.14;1795680;79;21049;-40
2022/04/04 09:40:15;;;;;;;9.25;5.12;;;;;;;7.16;49.68;98611.72;1796138;80;21486;-39
2022/04/04 09:42:56;;;;;;;6.47;5.03;;;;;;;7.34;50.82;98621.68;1795897;80;21091;-44
2022/04/04 09:45:25;;;;;;;9.10;5.70;;;;;;;7.49;51.32;98608.24;1794488;80;20986;-43
2022/04/04 09:48:04;;;;;;;12.98;7.12;;;;;;;7.68;50.09;98599.79;1795965;80;21033;-42
2022/04/04 09:50:44;;;;;;;16.37;5.53;;;;;;;7.86;50.90;98601.03;1794783;80;21025;-45
2022/04/04 09:53:24;;;;;;;5.92;4.50;;;;;;;7.82;49.70;98610.83;1784640;80;21017;-46
2022/04/04 09:55:56;;;;;;;5.37;3.80;;;;;;;7.82;49.58;98607.34;1784826;79;21030;-41
2022/04/04 09:58:29;;;;;;;6.67;4.08;;;;;;;8.21;49.30;98593.80;1785198;79;21014;-42
2022/04/04 10:01:01;;;;;;;5.33;3.80;;;;;;;8.28;49.33;98595.62;1785072;80;21037;-41
2022/04/04 10:03:30;;;;;;;8.15;4.20;;;;;;;7.94;47.46;98602.73;1784468;79;21112;-41
2022/04/04 10:06:06;;;;;;;5.33;3.87;;;;;;;7.68;48.10;98589.80;1784281;79;21065;-40
2022/04/04 10:08:33;;;;;;;10.58;4.22;;;;;;;7.51;47.87;98588.07;1784673;79;21504;-43
2022/04/04 10:11:01;;;;;;;5.20;3.72;;;;;;;7.45;48.56;98590.55;1784052;79;21064;-43
2022/04/04 10:13:27;;;;;;;7.58;5.00;;;;;;;7.30;48.89;98579.16;1784645;79;21030;-44
2022/04/04 10:15:54;;;;;;;4.97;4.00;;;;;;;7.14;48.76;98581.36;1784059;80;21041;-44
2022/04/04 10:18:21;;;;;;;4.60;3.83;;;;;;;7.06;48.62;98568.70;1784508;80;21044;-43
2022/04/04 10:20:52;;;;;;;6.53;5.00;;;;;;;6.96;49.09;98570.09;1784357;79;21069;-44
2022/04/04 10:23:15;;;;;;;6.30;3.87;;;;;;;7.01;48.93;98565.00;1783640;79;21031;-43
2022/04/04 10:25:42;;;;;;;7.62;4.05;;;;;;;6.89;48.39;98568.25;1784653;80;20974;-42
2022/04/04 10:28:09;;;;;;;12.33;4.53;;;;;;;6.85;48.86;98551.05;1784466;80;21045;-43
2022/04/04 10:30:40;;;;;;;6.10;4.03;;;;;;;6.83;49.42;98552.42;1784443;79;21549;-43
2022/04/04 10:33:23;;;;;;;8.55;3.75;;;;;;;6.80;48.77;98552.58;1784210;80;21021;-44
2022/04/04 10:36:10;;;;;;;9.50;3.92;;;;;;;6.76;49.04;98539.77;1784785;79;21053;-40
2022/04/04 10:38:47;;;;;;;7.60;3.95;;;;;;;6.91;49.13;98541.12;1784239;79;21017;-42
2022/04/04 10:41:18;;;;;;;12.78;4.05;;;;;;;7.10;49.17;98550.14;1784397;79;21060;-45
2022/04/04 10:43:51;;;;;;;6.85;3.95;;;;;;;7.11;48.87;98547.05;1784106;79;21084;-40
2022/04/04 10:46:20;;;;;;;6.05;3.77;;;;;;;7.03;48.81;98551.39;1784643;79;21061;-41
2022/04/04 10:48:52;;;;;;;9.30;4.30;;;;;;;6.94;48.75;98540.11;1784304;79;21045;-45
2022/04/04 10:51:31;;;;;;;4.97;4.15;;;;;;;6.82;49.02;98538.13;1784119;79;21031;-45
2022/04/04 10:54:10;;;;;;;8.93;4.47;;;;;;;6.68;50.15;98527.94;1779674;79;21030;-41
2022/04/04 10:56:45;;;;;;;7.80;4.40;;;;;;;6.82;49.98;98528.54;1784239;79;21081;-43
2022/04/04 10:59:24;;;;;;;14.15;5.40;;;;;;;6.90;49.63;98535.97;1784513;80;21534;-42
2022/04/04 11:01:58;;;;;;;8.23;4.70;;;;;;;6.85;49.68;98532.75;1784242;79;21033;-47
2022/04/04 11:04:36;;;;;;;6.50;4.20;;;;;;;6.72;49.74;98528.16;1784530;80;21394;-42
2022/04/04 11:10:06;;;;;;;7.15;4.60;;;;;;;6.63;49.90;98511.65;1784197;79;21065;-42
2022/04/04 11:13:00;;;;;;;5.65;4.45;;;;;;;6.51;50.01;98520.98;1783674;80;21622;-46
2022/04/04 11:15:54;;;;;;;5.30;4.35;;;;;;;6.70;49.76;98502.57;1772405;80;21070;-44
2022/04/04 11:18:20;;;;;;;7.87;4.60;;;;;;;6.76;49.35;98506.63;1783921;80;21061;-41
2022/04/04 11:20:59;;;;;;;7.12;4.60;;;;;;;6.66;49.25;98503.66;1784510;80;21036;-41
2022/04/04 11:23:27;;;;;;;9.78;4.72;;;;;;;6.69;49.24;98505.26;1783279;80;21232;-43
2022/04/04 11:25:55;;;;;;;5.50;3.87;;;;;;;6.67;48.75;98494.05;1784322;80;21097;-40
2022/04/04 11:28:24;;;;;;;11.10;4.12;;;;;;;6.61;48.63;98499.60;1784164;79;21077;-41
2022/04/04 11:31:09;;;;;;;4.62;4.03;;;;;;;6.61;48.94;98482.63;1784416;80;21049;-43
2022/04/04 11:33:47;;;;;;;5.35;3.67;;;;;;;6.65;48.66;98489.37;1784444;80;21065;-41
2022/04/04 11:36:30;;;;;;;11.30;4.67;;;;;;;6.64;48.57;98474.60;1781768;80;21487;-42
2022/04/04 11:39:03;;;;;;;9.23;4.75;;;;;;;6.69;48.87;98474.77;1783805;80;21054;-42
2022/04/04 11:41:36;;;;;;;12.75;5.20;;;;;;;6.71;48.71;98470.75;1784249;80;21022;-41
2022/04/04 11:43:57;;;;;;;6.90;4.15;;;;;;;6.76;48.71;98463.98;1783065;79;21045;-42
2022/04/04 11:46:23;;;;;;;6.12;4.05;;;;;;;6.85;48.88;98460.41;1784015;80;21542;-40
2022/04/04 11:48:54;;;;;;;4.28;3.80;;;;;;;7.19;47.64;98465.13;1784419;80;21045;-42
2022/04/04 11:51:22;;;;;;;10.35;4.97;;;;;;;7.22;47.20;98447.98;1785575;79;21073;-42
2022/04/04 11:53:48;;;;;;;8.15;4.58;;;;;;;7.24;46.66;98446.56;1792705;79;21627;-43
2022/04/04 11:56:21;;;;;;;4.85;3.85;;;;;;;7.46;46.63;98434.47;1792849;80;21131;-44
2022/04/04 11:58:54;;;;;;;5.05;3.80;;;;;;;7.51;46.14;98428.48;1792661;79;21539;-43
2022/04/04 12:01:19;;;;;;;6.35;4.58;;;;;;;7.51;45.96;98429.79;1792757;79;21042;-44
2022/04/04 12:03:49;;;;;;;13.55;4.15;;;;;;;7.71;45.46;98431.27;1793453;80;21021;-41
2022/04/04 12:06:14;;;;;;;6.08;4.47;;;;;;;8.40;45.58;98436.42;1792456;80;21312;-43
2022/04/04 12:08:45;;;;;;;11.28;3.87;;;;;;;9.19;42.59;98406.70;1793331;80;21025;-43
2022/04/04 12:11:12;;;;;;;5.70;3.98;;;;;;;8.92;41.00;98398.80;1793358;80;21005;-44
2022/04/04 12:13:56;;;;;;;7.65;4.17;;;;;;;8.87;42.25;98414.80;1792945;80;21099;-43
2022/04/04 12:16:24;;;;;;;4.65;3.40;;;;;;;8.61;42.87;98403.31;1793070;80;21546;-42
2022/04/04 12:18:57;;;;;;;7.87;3.62;;;;;;;8.57;42.55;98376.93;1791669;79;20978;-43
2022/04/04 12:21:24;;;;;;;13.68;4.37;;;;;;;8.52;41.02;98382.44;1793113;80;20994;-40
2022/04/04 12:26:35;;;;;;;6.12;3.52;;;;;;;8.42;41.09;98386.10;1793348;79;21213;-41
2022/04/04 12:29:07;;;;;;;4.65;3.02;;;;;;;8.30;40.99;98357.16;1792614;79;21034;-41
2022/04/04 12:31:32;;;;;;;12.07;3.58;;;;;;;8.83;40.75;98374.81;1792801;80;21066;-43
2022/04/04 12:34:08;;;;;;;5.87;3.55;;;;;;;8.81;40.07;98350.96;1793023;80;21053;-42
2022/04/04 12:36:40;;;;;;;6.87;3.25;;;;;;;9.10;39.60;98345.17;1793046;80;20979;-42
2022/04/04 12:39:18;;;;;;;10.85;3.33;;;;;;;10.40;36.83;98337.88;1792901;79;21079;-40
2022/04/04 12:41:51;;;;;;;4.60;2.90;;;;;;;10.24;37.14;98317.90;1793167;79;21628;-43
2022/04/04 12:44:24;;;;;;;7.70;2.72;;;;;;;10.67;36.43;98317.52;1793341;79;21037;-42
2022/04/04 12:47:06;;;;;;;13.93;3.45;;;;;;;11.98;35.22;98328.15;1791160;79;21370;-43
2022/04/04 12:49:33;;;;;;;4.60;3.00;;;;;;;13.77;32.60;98319.55;1793516;79;21651;-41
2022/04/04 12:52:06;;;;;;;4.45;2.83;;;;;;;14.11;32.28;98307.92;1789532;79;21081;-42
2022/04/04 12:54:39;;;;;;;3.22;2.80;;;;;;;12.85;30.94;98304.15;1784367;79;21002;-44
2022/04/04 12:57:11;;;;;;;4.55;2.83;;;;;;;12.40;34.22;98295.46;1783958;80;21057;-43
2022/04/04 12:59:56;;;;;;;9.83;2.98;;;;;;;11.55;34.46;98290.54;1784300;80;21037;-42
2022/04/04 13:02:34;;;;;;;6.20;2.85;;;;;;;10.84;34.82;98290.48;1783708;80;21164;-42
2022/04/04 13:05:22;;;;;;;3.50;2.98;;;;;;;10.49;35.43;98287.28;1784593;80;21053;-39
2022/04/04 13:07:55;;;;;;;10.15;3.15;;;;;;;10.78;35.09;98269.90;1782637;79;21042;-44
2022/04/04 13:10:28;;;;;;;4.72;2.58;;;;;;;10.38;34.00;98273.10;1775140;80;21010;-42
2022/04/04 13:13:10;;;;;;;5.80;2.55;;;;;;;11.35;32.95;98277.09;1762212;80;21098;-40
2022/04/04 13:15:40;;;;;;;4.72;2.65;;;;;;;11.79;33.70;98278.61;1762989;81;21082;-43
2022/04/04 13:18:11;;;;;;;3.83;2.37;;;;;;;11.78;32.21;98269.88;1762219;80;21027;-42
2022/04/04 13:20:37;;;;;;;3.90;2.80;;;;;;;11.49;30.85;98271.61;1763448;80;21536;-41
2022/04/04 13:23:03;;;;;;;2.75;2.40;;;;;;;11.10;31.60;98251.28;1763302;80;21007;-42
2022/04/04 13:25:30;;;;;;;6.58;2.52;;;;;;;10.98;32.40;98239.51;1762992;80;21074;-46
2022/04/04 13:27:56;;;;;;;8.83;2.65;;;;;;;10.88;33.44;98239.36;1763831;81;21066;-40
2022/04/04 13:30:22;;;;;;;7.37;2.55;;;;;;;11.45;33.31;98234.63;1763019;80;21006;-42
2022/04/04 13:32:48;;;;;;;4.40;2.12;;;;;;;11.86;31.55;98237.67;1763258;81;21071;-44
2022/04/04 13:35:14;;;;;;;2.58;2.33;;;;;;;11.61;31.32;98211.10;1763486;80;21519;-43
2022/04/04 13:37:41;;;;;;;3.83;2.27;;;;;;;11.26;32.46;98217.23;1763557;81;20999;-43
2022/04/04 13:40:09;;;;;;;3.37;2.30;;;;;;;10.66;33.28;98212.00;1763691;80;21078;-42
2022/04/04 13:42:36;;;;;;;5.10;2.70;;;;;;;10.05;33.84;98215.04;1763951;80;20987;-44
2022/04/04 13:45:05;;;;;;;7.12;2.52;;;;;;;9.67;34.09;98206.73;1763872;81;21034;-40
2022/04/04 13:47:32;;;;;;;2.87;2.20;;;;;;;9.32;34.64;98202.11;1763459;81;21041;-42
2022/04/04 13:49:58;;;;;;;3.92;2.30;;;;;;;9.25;34.41;98197.73;1764067;80;21539;-42
2022/04/04 13:52:26;;;;;;;9.78;2.30;;;;;;;9.03;34.50;98186.53;1763033;80;21594;-42
2022/04/04 13:54:52;;;;;;;;;;;;;;;9.00;34.97;98185.42;1766342;80;21050;-44
2022/04/04 13:57:18;;;;;;;6.03;2.70;;;;;;;9.06;35.60;98177.16;1763768;80;20109;-46
2022/04/04 13:59:44;;;;;;;4.55;2.60;;;;;;;9.23;35.42;98178.16;1763615;80;21780;-43
2022/04/04 14:02:11;;;;;;;10.28;2.98;;;;;;;9.22;35.41;98175.19;1763833;80;21462;-42
2022/04/04 14:04:38;;;;;;;6.08;3.27;;;;;;;8.99;35.83;98166.71;1763675;80;21530;-42
2022/04/04 14:07:06;;;;;;;2.98;2.65;;;;;;;8.79;36.27;98154.92;1763647;80;21093;-44
2022/04/04 14:09:33;;;;;;;6.22;2.42;;;;;;;8.92;36.66;98147.91;1763325;81;21041;-41
2022/04/04 14:11:59;;;;;;;8.10;2.80;;;;;;;8.98;36.36;98146.66;1764159;80;21101;-44
2022/04/04 14:14:30;;;;;;;9.38;3.00;;;;;;;8.96;36.32;98138.06;1763456;81;21602;-41
2022/04/04 14:16:55;;;;;;;9.33;2.50;;;;;;;8.96;36.35;98140.69;1763302;81;21023;-41
2022/04/04 14:19:21;;;;;;;3.22;2.92;;;;;;;8.96;36.45;98136.27;1763428;81;21539;-43
2022/04/04 14:21:47;;;;;;;3.30;2.35;;;;;;;9.00;36.17;98128.59;1763626;80;21644;-41
2022/04/04 14:24:13;;;;;;;2.40;2.20;;;;;;;8.81;35.74;98131.59;1763792;81;21524;-46
2022/04/04 14:26:39;;;;;;;4.78;2.37;;;;;;;8.58;36.09;98106.90;1763538;80;21023;-42
2022/04/04 14:29:04;;;;;;;5.17;2.33;;;;;;;8.52;36.36;98112.55;1763578;80;21488;-42
2022/04/04 14:31:31;;;;;;;2.77;2.35;;;;;;;8.40;36.96;98110.25;1763414;81;21007;-43
2022/04/04 14:33:59;;;;;;;3.62;2.42;;;;;;;8.40;36.62;98107.62;1763653;80;21027;-42
2022/04/04 14:36:24;;;;;;;13.25;2.58;;;;;;;8.42;36.72;98106.22;1762825;81;21062;-43
2022/04/04 14:38:51;;;;;;;3.25;2.40;;;;;;;8.25;36.63;98096.83;1763912;80;21123;-45
2022/04/04 14:41:19;;;;;;;3.22;2.92;;;;;;;8.18;36.69;98100.30;1763846;81;21059;-42
2022/04/04 14:43:47;;;;;;;15.83;2.75;;;;;;;8.05;37.03;98088.47;1763251;81;20976;-41
2022/04/04 14:46:14;;;;;;;7.72;2.87;;;;;;;8.02;36.72;98088.69;1763854;81;21077;-43
2022/04/04 14:48:44;;;;;;;6.60;2.92;;;;;;;7.91;36.70;98071.49;1763413;80;21007;-42
2022/04/04 14:51:13;;;;;;;4.67;2.35;;;;;;;7.93;37.14;98066.16;1763719;80;21012;-43
2022/04/04 14:53:41;;;;;;;8.58;2.65;;;;;;;7.96;37.24;98066.80;1763020;80;21079;-46
2022/04/04 14:56:07;;;;;;;5.15;2.47;;;;;;;7.89;37.20;98075.99;1763818;80;21077;-44
2022/04/04 14:58:35;;;;;;;4.03;2.25;;;;;;;7.97;37.13;98065.05;1763476;81;21014;-45
2022/04/04 15:01:02;;;;;;;3.00;2.27;;;;;;;8.01;37.65;98046.41;1763811;81;21074;-44
2022/04/04 15:03:28;;;;;;;8.20;3.07;;;;;;;8.02;38.21;98059.02;1763652;80;21065;-42
2022/04/04 15:05:54;;;;;;;7.92;2.50;;;;;;;8.15;37.92;98053.39;1763463;81;21795;-46
2022/04/04 15:08:20;;;;;;;4.12;2.67;;;;;;;8.11;37.43;98051.05;1763505;81;21055;-43
2022/04/04 15:10:46;;;;;;;9.23;2.75;;;;;;;8.01;37.70;98037.25;1763355;81;21646;-41
2022/04/04 15:13:13;;;;;;;7.72;2.77;;;;;;;7.83;38.21;98037.13;1721548;81;20996;-46
2022/04/04 15:15:38;;;;;;;9.28;2.87;;;;;;;7.84;38.29;98028.33;1718230;82;21069;-42
2022/04/04 15:18:04;;;;;;;3.80;2.60;;;;;;;7.79;38.11;98027.81;1730312;82;21047;-43
2022/04/04 15:20:30;;;;;;;5.97;2.90;;;;;;;7.60;37.94;98036.80;1747843;81;21035;-39
2022/04/04 15:22:57;;;;;;;9.35;3.37;;;;;;;7.59;38.05;98020.75;1748086;81;21000;-43
2022/04/04 15:25:23;;;;;;;5.30;2.35;;;;;;;7.62;38.11;98006.17;1748185;81;21063;-41
2022/04/04 15:27:49;;;;;;;7.17;2.22;;;;;;;7.60;37.88;98015.88;1747975;81;21011;-42
2022/04/04 15:30:17;;;;;;;8.68;2.83;;;;;;;7.53;37.52;98010.69;1747914;81;21000;-42
2022/04/04 15:32:43;;;;;;;;;;;;;;;7.46;37.69;98014.63;1750674;81;21023;-42
2022/04/04 15:35:10;;;;;;;3.98;2.47;;;;;;;7.50;37.39;98005.64;1740657;81;20157;-41
2022/04/04 15:37:38;;;;;;;4.12;2.67;;;;;;;7.43;37.45;97997.81;1718304;82;20976;-42
2022/04/04 15:40:07;;;;;;;2.60;2.40;;;;;;;7.28;37.54;97996.52;1718442;82;21063;-43
2022/04/04 15:42:34;;;;;;;9.40;3.00;;;;;;;7.13;37.72;97996.19;1732988;82;20999;-42
2022/04/04 15:45:02;;;;;;;2.42;2.22;;;;;;;7.13;37.71;97982.25;1742143;81;21563;-44
2022/04/04 15:47:30;;;;;;;5.62;2.55;;;;;;;7.11;37.87;97975.36;1718487;82;21051;-45
2022/04/04 15:49:56;;;;;;;2.90;2.67;;;;;;;7.02;38.18;97972.46;1736358;81;21547;-43
2022/04/04 15:52:23;;;;;;;6.97;2.80;;;;;;;6.97;38.63;97972.77;1750504;81;21063;-42
2022/04/04 15:54:50;;;;;;;;;;;;;;;6.94;38.62;97970.33;1763827;80;21082;-42
2022/04/04 15:57:17;;;;;;;4.62;2.92;;;;;;;6.78;39.42;97969.11;1761671;81;20101;-46
2022/04/04 15:59:42;;;;;;;5.62;2.83;;;;;;;6.91;38.75;97959.61;1761524;81;21057;-41
2022/04/04 16:02:09;;;;;;;12.82;3.02;;;;;;;6.73;39.52;97962.02;1761558;81;21031;-41
2022/04/04 16:04:35;;;;;;;3.17;2.75;;;;;;;6.70;39.82;97949.16;1762051;81;21480;-43
2022/04/04 16:07:03;;;;;;;3.22;2.70;;;;;;;6.65;39.57;97944.20;1762109;81;21003;-42
2022/04/04 16:09:29;;;;;;;6.92;3.42;;;;;;;6.62;39.76;97955.30;1762131;81;21014;-40
2022/04/04 16:11:54;;;;;;;5.37;3.60;;;;;;;6.56;39.80;97934.31;1762128;81;20983;-41
2022/04/04 16:14:23;;;;;;;5.15;3.08;;;;;;;6.56;39.65;97930.88;1762151;80;21468;-42
2022/04/04 16:16:53;;;;;;;6.35;3.45;;;;;;;6.54;39.75;97938.33;1762180;81;21465;-43
2022/04/04 16:19:22;;;;;;;5.85;2.67;;;;;;;6.52;39.67;97922.38;1762124;81;21461;-42
2022/04/04 16:21:48;;;;;;;6.80;2.85;;;;;;;6.47;39.80;97927.87;1762179;80;20955;-43
2022/04/04 16:24:14;;;;;;;4.58;3.20;;;;;;;6.46;39.83;97926.21;1762892;80;21019;-40
2022/04/04 16:26:44;;;;;;;5.53;2.98;;;;;;;6.37;40.03;97921.98;1731930;82;21066;-42
2022/04/04 16:29:10;;;;;;;4.60;2.60;;;;;;;6.40;39.93;97910.89;1731912;83;20979;-42
2022/04/04 16:31:39;;;;;;;3.98;3.10;;;;;;;6.41;40.03;97907.36;1732045;81;21531;-42
2022/04/04 16:34:06;;;;;;;4.70;2.50;;;;;;;6.38;40.02;97936.27;1731924;83;20975;-39
2022/04/04 16:36:33;;;;;;;;;;;;;;;6.30;40.04;97898.88;1734689;82;21137;-44
2022/04/04 16:39:00;;;;;;;8.25;2.85;;;;;;;6.21;40.24;97886.38;1732021;82;20107;-43
2022/04/04 16:41:26;;;;;;;8.70;2.90;;;;;;;6.25;39.60;97872.67;1731925;83;21476;-42
2022/04/04 16:43:52;;;;;;;5.50;3.10;;;;;;;6.30;39.58;97879.77;1732004;82;21457;-43
2022/04/04 16:46:18;;;;;;;8.93;2.70;;;;;;;6.28;39.47;97874.63;1732187;82;21100;-39
2022/04/04 16:48:46;;;;;;;3.65;2.60;;;;;;;6.27;39.14;97879.94;1731964;82;21002;-44
2022/04/04 16:51:13;;;;;;;6.45;2.85;;;;;;;6.26;39.34;97866.53;1732057;82;21084;-46
2022/04/04 16:53:39;;;;;;;5.15;3.17;;;;;;;6.20;39.70;97862.49;1731953;81;21026;-41
2022/04/04 16:56:05;;;;;;;6.53;3.75;;;;;;;6.24;39.94;97852.70;1732009;82;20990;-43
2022/04/04 16:58:31;;;;;;;9.75;4.20;;;;;;;6.24;40.23;97848.79;1731952;82;20960;-43
2022/04/04 17:00:58;;;;;;;8.70;4.62;;;;;;;6.20;40.89;97846.00;1731922;82;21034;-43
2022/04/04 17:03:24;;;;;;;7.27;4.20;;;;;;;6.22;40.65;97848.05;1732164;82;21018;-41
2022/04/04 17:05:53;;;;;;;10.40;4.15;;;;;;;6.16;41.44;97837.52;1732018;82;21238;-39
2022/04/04 17:08:19;;;;;;;6.28;3.62;;;;;;;6.07;41.76;97828.94;1759937;81;20963;-39
2022/04/04 17:10:45;;;;;;;5.92;3.37;;;;;;;6.06;41.29;97826.80;1762112;81;20988;-42
2022/04/04 17:13:12;;;;;;;7.87;4.15;;;;;;;5.95;42.24;97826.59;1762556;81;20982;-41
2022/04/04 17:15:38;;;;;;;8.25;3.92;;;;;;;5.96;41.98;97818.67;1762361;80;20940;-42
2022/04/04 17:18:05;;;;;;;6.20;4.20;;;;;;;5.89;42.76;97813.41;1762386;81;21457;-42
2022/04/04 17:20:32;;;;;;;8.40;4.50;;;;;;;5.90;42.30;97810.36;1761712;81;21469;-43
2022/04/04 17:22:59;;;;;;;5.97;3.77;;;;;;;5.86;42.70;97800.58;1761805;80;21372;-40
2022/04/04 17:25:26;;;;;;;6.05;4.28;;;;;;;5.87;42.71;97798.32;1761828;80;21395;-41
2022/04/04 17:27:52;;;;;;;11.20;4.97;;;;;;;5.81;42.78;97801.31;1761792;81;21616;-43
2022/04/04 17:30:18;;;;;;;11.08;4.33;;;;;;;5.75;43.09;97799.91;1761521;81;21026;-41
2022/04/04 17:32:43;;;;;;;6.78;4.12;;;;;;;5.79;42.98;97787.52;1761664;81;20948;-44
2022/04/04 17:35:09;;;;;;;11.60;4.58;;;;;;;5.71;43.20;97778.86;1761962;81;20983;-42
2022/04/04 17:37:36;;;;;;;9.35;4.30;;;;;;;5.69;43.48;97780.69;1762304;80;21015;-44
2022/04/04 17:40:04;;;;;;;9.30;4.37;;;;;;;5.68;43.51;97784.25;1762670;81;20960;-42
2022/04/04 17:42:32;;;;;;;6.70;4.53;;;;;;;5.70;43.10;97781.55;1762475;81;20987;-42
2022/04/04 17:44:58;;;;;;;4.97;4.20;;;;;;;5.68;43.22;97782.95;1762363;81;20971;-42
2022/04/04 17:47:25;;;;;;;10.48;4.25;;;;;;;5.67;43.29;97786.47;1762500;81;21472;-40
2022/04/04 17:49:50;;;;;;;49.33;16.05;;;;;;;5.67;43.87;97781.25;1761615;81;21322;-40
2022/04/04 17:52:16;;;;;;;11.05;5.33;;;;;;;5.66;43.05;97776.98;1762288;80;21452;-39
2022/04/04 17:54:42;;;;;;;12.68;5.47;;;;;;;5.61;42.96;97775.11;1754703;81;21059;-41
2022/04/04 17:57:08;;;;;;;7.25;4.83;;;;;;;5.62;43.04;97770.28;1754251;82;21540;-41
2022/04/04 17:59:37;;;;;;;6.83;4.40;;;;;;;5.67;42.72;97772.59;1754419;80;20971;-42
2022/04/04 18:02:05;;;;;;;9.15;4.95;;;;;;;5.66;42.92;97770.47;1754178;82;20982;-43
2022/04/04 18:04:30;;;;;;;;;;;;;;;5.69;42.54;97774.65;1756876;81;20988;-43
2022/04/04 18:06:57;;;;;;;5.83;4.22;;;;;;;5.59;42.65;97762.63;1726433;82;20114;-40
2022/04/04 18:09:24;;;;;;;8.95;4.60;;;;;;;5.64;42.59;97771.03;1754476;81;20968;-43
2022/04/04 18:11:53;;;;;;;7.45;4.28;;;;;;;5.65;42.48;97764.86;1754243;81;20959;-41
2022/04/04 18:14:20;;;;;;;5.47;3.70;;;;;;;5.68;42.26;97780.34;1754009;82;21497;-42
2022/04/04 18:16:48;;;;;;;5.15;3.77;;;;;;;5.64;42.21;97752.77;1754438;80;21018;-43
2022/04/04 18:19:14;;;;;;;6.30;3.50;;;;;;;5.64;42.21;97752.77;1754244;81;21518;-42
2022/04/04 18:21:41;;;;;;;5.53;3.95;;;;;;;5.60;42.66;97761.68;1754430;82;21464;-39
2022/04/04 18:24:09;;;;;;;4.47;3.50;;;;;;;5.58;42.64;97755.72;1754461;81;20976;-43
2022/04/04 18:26:36;;;;;;;7.58;2.90;;;;;;;5.59;42.60;97756.11;1754321;80;20971;-44
2022/04/04 18:29:04;;;;;;;9.03;3.30;;;;;;;5.56;42.80;97764.94;1754693;81;21750;-41
2022/04/04 18:31:29;;;;;;;;;;;;;;;5.49;43.77;97782.34;1757014;82;21683;-43
2022/04/04 18:33:57;;;;;;;8.25;3.27;;;;;;;5.43;44.27;97754.05;1754405;80;20111;-43
2022/04/04 18:36:27;;;;;;;;;;;;;;;5.43;43.83;97769.20;1757187;82;21011;-41
2022/04/04 18:38:50;;;;;;;7.87;3.65;;;;;;;5.35;44.68;97755.33;1753692;82;20115;-39
2022/04/04 18:41:16;;;;;;;6.25;3.25;;;;;;;5.37;44.56;97743.52;1754458;81;21440;-41
2022/04/04 18:43:42;;;;;;;7.62;3.85;;;;;;;5.30;44.99;97741.72;1754428;80;21439;-43
2022/04/04 18:46:08;;;;;;;6.90;4.10;;;;;;;5.32;44.86;97746.38;1754393;80;21049;-42
2022/04/04 18:48:34;;;;;;;7.50;3.00;;;;;;;5.37;44.52;97741.73;1754502;80;21052;-40
2022/04/04 18:51:00;;;;;;;12.03;3.42;;;;;;;5.34;45.21;97711.10;1754490;82;21441;-42
2022/04/04 18:53:26;;;;;;;8.35;3.72;;;;;;;5.29;46.15;97702.71;1750225;81;21004;-42
2022/04/04 18:55:53;;;;;;;16.15;3.40;;;;;;;5.25;46.10;97721.59;1740413;82;21071;-41
2022/04/04 18:58:19;;;;;;;35.05;4.12;;;;;;;5.27;45.96;97701.49;1740561;82;20979;-44
2022/04/04 19:00:45;;;;;;;8.38;3.33;;;;;;;5.23;45.56;97703.09;1740364;81;20956;-43
2022/04/04 19:03:11;;;;;;;4.75;3.27;;;;;;;5.22;45.54;97707.47;1740451;82;20988;-42
2022/04/04 19:05:36;;;;;;;4.08;3.37;;;;;;;5.16;45.72;97711.24;1740360;82;20984;-43
2022/04/04 19:08:03;;;;;;;7.00;3.58;;;;;;;5.10;45.77;97692.55;1740349;82;21028;-41
2022/04/04 19:10:30;;;;;;;11.03;3.05;;;;;;;5.11;46.11;97712.44;1740316;82;21000;-42
2022/04/04 19:12:57;;;;;;;12.33;3.25;;;;;;;5.10;46.04;97721.20;1740473;82;21008;-42
2022/04/04 19:15:24;;;;;;;15.57;3.37;;;;;;;5.07;46.28;97697.92;1740302;82;20996;-41
2022/04/04 19:17:50;;;;;;;7.72;3.27;;;;;;;5.02;46.83;97703.86;1740512;82;21478;-42
2022/04/04 19:20:16;;;;;;;5.22;3.30;;;;;;;4.98;46.92;97692.34;1740435;82;20972;-43
2022/04/04 19:22:43;;;;;;;13.80;4.10;;;;;;;4.97;46.98;97684.61;1740371;81;20984;-42
2022/04/04 19:25:08;;;;;;;11.93;3.50;;;;;;;4.95;47.19;97674.27;1740368;82;20972;-41
2022/04/04 19:27:35;;;;;;;12.30;3.20;;;;;;;4.98;46.87;97665.42;1740406;81;21012;-40
2022/04/04 19:30:05;;;;;;;11.07;3.43;;;;;;;4.91;47.68;97672.78;1740613;81;20972;-42
2022/04/04 19:32:32;;;;;;;19.12;3.72;;;;;;;4.88;47.93;97657.80;1740477;81;21007;-41
2022/04/04 19:34:58;;;;;;;6.80;3.22;;;;;;;4.88;47.48;97662.53;1740407;82;20972;-43
2022/04/04 19:37:24;;;;;;;15.43;3.75;;;;;;;4.90;47.50;97642.44;1740358;81;20984;-43
2022/04/04 19:39:50;;;;;;;12.78;3.60;;;;;;;4.89;47.43;97647.26;1740375;81;21469;-43
2022/04/04 19:42:15;;;;;;;23.30;3.98;;;;;;;4.86;47.83;97648.77;1740373;82;20980;-40
2022/04/04 19:44:41;;;;;;;15.35;3.87;;;;;;;4.87;47.98;97645.22;1740409;82;20997;-43
2022/04/04 19:47:08;;;;;;;11.53;3.67;;;;;;;4.84;47.96;97632.84;1740431;82;21508;-43
2022/04/04 19:49:34;;;;;;;17.90;3.55;;;;;;;4.88;47.86;97640.39;1740377;82;20980;-39
2022/04/04 19:52:02;;;;;;;10.23;3.58;;;;;;;4.85;48.42;97630.14;1740311;82;20968;-42
2022/04/04 19:54:28;;;;;;;15.43;3.58;;;;;;;4.85;48.37;97611.91;1748682;81;21018;-42
2022/04/04 19:56:57;;;;;;;6.80;3.80;;;;;;;4.83;48.31;97615.08;1754349;81;20982;-42
2022/04/04 19:59:25;;;;;;;12.13;3.62;;;;;;;4.83;49.12;97624.19;1754340;81;20999;-41
2022/04/04 20:01:51;;;;;;;7.35;3.98;;;;;;;4.76;49.88;97627.61;1753701;82;21015;-43
2022/04/04 20:04:17;;;;;;;12.82;3.45;;;;;;;4.70;50.00;97610.22;1754365;82;21183;-42
2022/04/04 20:06:42;;;;;;;14.28;3.65;;;;;;;4.69;50.34;97608.53;1754348;82;20963;-40
2022/04/04 20:09:08;;;;;;;15.78;3.80;;;;;;;4.66;50.37;97617.81;1754343;82;20983;-43
2022/04/04 20:11:34;;;;;;;7.72;3.58;;;;;;;4.64;50.60;97586.69;1754301;82;20956;-42
2022/04/04 20:14:02;;;;;;;11.03;4.90;;;;;;;4.66;50.63;97590.03;1754812;80;21503;-40
2022/04/04 20:16:29;;;;;;;10.03;3.50;;;;;;;4.65;50.11;97581.84;1754427;80;21463;-41
2022/04/04 20:18:55;;;;;;;11.40;3.60;;;;;;;4.67;50.13;97576.55;1754616;82;21018;-41
2022/04/04 20:21:21;;;;;;;9.68;4.10;;;;;;;4.71;49.74;97579.33;1754609;82;21712;-40
2022/04/04 20:23:47;;;;;;;10.80;4.12;;;;;;;4.68;50.05;97566.52;1754294;82;20972;-42
2022/04/04 20:26:13;;;;;;;7.87;4.65;;;;;;;4.69;49.78;97554.68;1754288;81;21014;-40
2022/04/04 20:28:40;;;;;;;10.95;5.20;;;;;;;4.72;49.74;97554.98;1754336;80;20975;-41
2022/04/04 20:31:07;;;;;;;10.40;4.47;;;;;;;4.72;49.69;97560.19;1754352;82;20968;-42
2022/04/04 20:33:33;;;;;;;10.13;4.25;;;;;;;4.69;50.37;97544.73;1754493;81;20983;-42
2022/04/04 20:35:59;;;;;;;11.20;4.20;;;;;;;4.65;50.23;97541.95;1754333;82;20956;-42
2022/04/04 20:38:25;;;;;;;14.40;4.67;;;;;;;4.68;50.15;97541.78;1754611;82;20956;-39
2022/04/04 20:40:57;;;;;;;5.72;3.87;;;;;;;4.69;50.18;97542.14;1754339;81;21362;-41
2022/04/04 20:43:20;;;;;;;10.90;4.20;;;;;;;4.67;50.34;97533.58;1753475;82;20936;-43
2022/04/04 20:45:45;;;;;;;5.78;3.62;;;;;;;4.63;50.28;97532.92;1754348;82;20964;-39